createdAt,value
2023-03-18T00:01:44.267Z,68.08
2023-03-18T00:04:13.711Z,68.21
2023-03-18T00:06:44.816Z,68.25
2023-03-18T00:09:15.559Z,68.23
2023-03-18T00:11:46.363Z,68.08
2023-03-18T00:14:15.877Z,67.76
2023-03-18T00:16:45.506Z,68.08
2023-03-18T00:19:15.191Z,67.84
2023-03-18T00:21:46.150Z,67.92
2023-03-18T00:24:16.977Z,67.86
2023-03-18T00:26:46.624Z,68.14
2023-03-18T00:29:16.117Z,68.23
2023-03-18T00:31:46.470Z,68.31
2023-03-18T00:34:16.298Z,68.26
2023-03-18T00:36:51.101Z,68.30
2023-03-18T00:39:26.589Z,68.21
2023-03-18T00:41:58.264Z,68.54
2023-03-18T00:44:27.887Z,68.13
2023-03-18T00:50:22.957Z,68.47
2023-03-18T00:52:52.412Z,68.75
2023-03-18T00:55:21.870Z,68.94
2023-03-18T00:57:51.501Z,68.79
2023-03-18T01:00:21.813Z,68.92
2023-03-18T01:02:51.175Z,68.89
2023-03-18T01:05:21.992Z,69.31
2023-03-18T01:07:52.081Z,69.05
2023-03-18T01:10:22.170Z,69.43
2023-03-18T01:12:51.668Z,69.17
2023-03-18T01:15:24.165Z,69.29
2023-03-18T01:17:57.176Z,69.18
2023-03-18T01:20:29.631Z,69.31
2023-03-18T01:22:59.115Z,69.56
2023-03-18T01:25:28.916Z,69.28
2023-03-18T01:27:58.432Z,69.39
2023-03-18T01:30:29.477Z,69.54
2023-03-18T01:32:59.430Z,69.24
2023-03-18T01:35:30.378Z,69.24
2023-03-18T01:40:30.334Z,69.40
2023-03-18T01:43:18.999Z,69.43
2023-03-18T01:45:52.417Z,69.41
2023-03-18T01:48:33.662Z,69.84
2023-03-18T01:51:10.255Z,69.82
2023-03-18T01:53:46.692Z,69.53
2023-03-18T01:56:18.173Z,69.56
2023-03-18T01:58:51.373Z,69.77
2023-03-18T02:01:27.977Z,69.82
2023-03-18T02:03:57.977Z,69.66
2023-03-18T02:06:29.612Z,69.71
2023-03-18T02:09:00.591Z,69.54
2023-03-18T02:11:32.094Z,69.99
2023-03-18T02:14:03.014Z,69.55
2023-03-18T02:16:38.604Z,69.91
2023-03-18T02:19:20.651Z,70.24
2023-03-18T02:22:00.949Z,70.12
2023-03-18T02:24:43.128Z,70.19
2023-03-18T02:27:20.757Z,70.12
2023-03-18T02:29:51.436Z,69.95
2023-03-18T02:32:22.778Z,70.11
2023-03-18T02:34:52.329Z,69.74
2023-03-18T02:37:23.806Z,69.89
2023-03-18T02:39:53.343Z,69.88
2023-03-18T02:42:32.656Z,69.72
2023-03-18T02:45:02.482Z,69.63
2023-03-18T02:47:33.718Z,69.74
2023-03-18T02:50:03.168Z,69.71
2023-03-18T02:52:32.723Z,69.52
2023-03-18T02:55:02.157Z,69.64
2023-03-18T02:57:33.769Z,69.57
2023-03-18T03:00:03.376Z,69.65
2023-03-18T03:02:33.029Z,69.79
2023-03-18T03:05:02.625Z,69.63
2023-03-18T03:07:32.264Z,69.77
2023-03-18T03:10:03.241Z,69.53
2023-03-18T03:12:34.694Z,69.76
2023-03-18T03:15:04.272Z,69.81
2023-03-18T03:17:33.929Z,69.89
2023-03-18T03:20:03.812Z,69.81
2023-03-18T03:22:33.198Z,70.12
2023-03-18T03:25:03.017Z,70.08
2023-03-18T03:27:33.806Z,70.00
2023-03-18T03:30:03.316Z,70.13
2023-03-18T03:32:32.837Z,70.20
2023-03-18T03:35:05.477Z,70.49
2023-03-18T03:37:34.952Z,70.30
2023-03-18T03:40:06.403Z,70.14
2023-03-18T03:42:37.086Z,70.18
2023-03-18T03:45:08.448Z,70.34
2023-03-18T03:47:38.027Z,70.34
2023-03-18T03:51:22.866Z,69.98
2023-03-18T03:53:52.282Z,70.37
2023-03-18T03:56:22.520Z,70.10
2023-03-18T03:58:51.968Z,70.05
2023-03-18T04:01:21.439Z,70.48
2023-03-18T04:03:50.968Z,70.27
2023-03-18T04:06:21.862Z,70.26
2023-03-18T04:08:51.894Z,70.49
2023-03-18T04:11:21.404Z,70.41
2023-03-18T04:13:50.872Z,70.38
2023-03-18T04:16:20.437Z,70.18
2023-03-18T04:18:49.969Z,69.97
2023-03-18T04:21:19.387Z,69.75
2023-03-18T04:23:50.269Z,69.91
2023-03-18T04:26:19.658Z,69.92
2023-03-18T04:28:49.178Z,69.42
2023-03-18T04:31:19.259Z,69.82
2023-03-18T04:33:48.656Z,69.19
2023-03-18T04:36:18.136Z,69.06
2023-03-18T04:38:48.792Z,69.19
2023-03-18T04:41:18.431Z,69.81
2023-03-18T04:43:47.884Z,70.06
2023-03-18T04:46:17.856Z,70.67
2023-03-18T04:48:47.410Z,70.41
2023-03-18T04:51:17.744Z,70.25
2023-03-18T04:53:48.755Z,70.28
2023-03-18T04:56:18.334Z,69.55
2023-03-18T04:58:47.845Z,68.80
2023-03-18T05:01:17.311Z,68.89
2023-03-18T05:03:47.590Z,69.07
2023-03-18T05:06:25.502Z,69.18
2023-03-18T05:08:57.360Z,69.76
2023-03-18T05:11:27.160Z,68.54
2023-03-18T05:13:57.037Z,68.69
2023-03-18T05:16:26.846Z,68.62
2023-03-18T05:18:56.435Z,67.82
2023-03-18T05:21:25.978Z,67.03
2023-03-18T05:23:56.852Z,67.00
2023-03-18T05:26:26.308Z,66.39
2023-03-18T05:28:55.761Z,65.42
2023-03-18T05:31:25.804Z,66.10
2023-03-18T05:33:55.417Z,65.91
2023-03-18T05:36:24.836Z,65.79
2023-03-18T05:38:55.584Z,65.07
2023-03-18T05:41:25.013Z,65.12
2023-03-18T05:43:54.532Z,64.95
2023-03-18T05:46:24.224Z,64.75
2023-03-18T05:48:54.112Z,63.64
2023-03-18T05:51:23.584Z,63.45
2023-03-18T05:53:53.127Z,63.16
2023-03-18T05:56:24.829Z,63.41
2023-03-18T05:58:54.785Z,63.93
2023-03-18T06:01:25.976Z,64.45
2023-03-18T06:03:55.979Z,65.23
2023-03-18T06:06:25.482Z,65.21
2023-03-18T06:08:56.397Z,65.37
2023-03-18T06:11:27.273Z,64.72
2023-03-18T06:13:56.965Z,62.19
2023-03-18T06:16:26.924Z,59.53
2023-03-18T06:18:56.649Z,58.46
2023-03-18T06:21:27.398Z,58.88
2023-03-18T06:23:57.782Z,56.02
2023-03-18T06:26:28.683Z,56.61
2023-03-18T06:28:58.609Z,57.20
2023-03-18T06:31:28.179Z,55.80
2023-03-18T06:33:58.741Z,56.25
2023-03-18T06:36:29.594Z,55.11
2023-03-18T06:38:59.475Z,54.48
2023-03-18T06:41:30.297Z,55.37
2023-03-18T06:43:59.767Z,55.65
2023-03-18T06:46:29.619Z,56.13
2023-03-18T06:51:22.795Z,56.15
2023-03-18T06:53:52.835Z,57.46
2023-03-18T06:56:22.550Z,57.83
2023-03-18T06:58:51.983Z,58.97
2023-03-18T07:01:21.672Z,59.78
2023-03-18T07:03:51.791Z,60.35
2023-03-18T07:06:23.019Z,60.95
2023-03-18T07:08:53.161Z,61.03
2023-03-18T07:11:23.817Z,62.07
2023-03-18T07:13:53.477Z,62.56
2023-03-18T07:16:22.902Z,62.85
2023-03-18T07:18:52.752Z,63.23
2023-03-18T07:21:23.922Z,63.52
2023-03-18T07:23:55.622Z,63.85
2023-03-18T07:26:25.130Z,64.33
2023-03-18T07:28:54.569Z,64.48
2023-03-18T07:31:24.136Z,64.60
2023-03-18T07:33:53.773Z,64.64
2023-03-18T07:36:24.654Z,64.92
2023-03-18T07:38:54.152Z,65.42
2023-03-18T07:41:23.668Z,65.72
2023-03-18T07:43:53.231Z,65.91
2023-03-18T07:46:22.674Z,65.93
2023-03-18T07:48:52.221Z,66.47
2023-03-18T07:51:23.220Z,66.26
2023-03-18T07:53:52.602Z,66.59
2023-03-18T07:56:22.181Z,66.75
2023-03-18T07:58:51.889Z,66.96
2023-03-18T08:01:21.800Z,66.85
2023-03-18T08:03:51.410Z,63.75
2023-03-18T08:06:22.922Z,59.34
2023-03-18T08:08:52.213Z,58.37
2023-03-18T08:11:21.591Z,58.75
2023-03-18T08:13:50.892Z,55.53
2023-03-18T08:16:20.312Z,56.32
2023-03-18T08:18:50.229Z,56.61
2023-03-18T08:21:19.811Z,57.26
2023-03-18T08:23:50.596Z,56.87
2023-03-18T08:26:20.522Z,56.42
2023-03-18T08:28:50.048Z,55.93
2023-03-18T08:31:20.037Z,57.19
2023-03-18T08:33:49.737Z,54.96
2023-03-18T08:36:19.178Z,55.23
2023-03-18T08:38:50.022Z,56.42
2023-03-18T08:41:19.696Z,56.09
2023-03-18T08:43:48.976Z,55.65
2023-03-18T08:46:19.175Z,56.85
2023-03-18T08:48:48.433Z,57.59
2023-03-18T08:51:18.290Z,57.65
2023-03-18T08:53:49.392Z,58.37
2023-03-18T08:56:18.867Z,57.82
2023-03-18T08:58:48.488Z,58.23
2023-03-18T09:01:18.179Z,58.15
2023-03-18T09:03:47.555Z,57.91
2023-03-18T09:06:17.210Z,57.76
2023-03-18T09:08:46.703Z,57.06
2023-03-18T09:11:18.179Z,57.19
2023-03-18T09:13:47.528Z,57.54
2023-03-18T09:16:17.793Z,57.50
2023-03-18T09:18:48.860Z,57.19
2023-03-18T09:21:19.402Z,56.28
2023-03-18T09:23:49.877Z,56.40
2023-03-18T09:26:20.972Z,56.66
2023-03-18T09:28:50.176Z,56.92
2023-03-18T09:31:19.575Z,56.15
2023-03-18T09:33:48.920Z,57.22
2023-03-18T09:36:18.636Z,56.25
2023-03-18T09:38:48.129Z,55.58
2023-03-18T09:41:33.671Z,57.54
2023-03-18T09:44:17.945Z,55.98
2023-03-18T09:47:08.786Z,56.67
2023-03-18T09:51:43.461Z,55.23
2023-03-18T09:54:20.439Z,56.14
2023-03-18T09:56:51.269Z,55.94
2023-03-18T09:59:25.695Z,56.31
2023-03-18T10:01:58.389Z,56.65
2023-03-18T10:04:35.075Z,56.41
2023-03-18T10:07:15.241Z,57.11
2023-03-18T10:09:48.334Z,56.30
2023-03-18T10:12:25.832Z,56.71
2023-03-18T10:15:13.425Z,56.06
2023-03-18T10:17:50.692Z,56.54
2023-03-18T10:20:27.486Z,56.06
2023-03-18T10:23:12.670Z,56.85
2023-03-18T10:25:49.809Z,57.26
2023-03-18T10:29:19.202Z,55.10
2023-03-18T10:32:05.638Z,56.56
2023-03-18T10:34:47.030Z,57.06
2023-03-18T10:37:25.953Z,56.28
2023-03-18T10:39:58.543Z,56.47
2023-03-18T10:42:32.633Z,56.20
2023-03-18T10:45:17.545Z,56.99
2023-03-18T10:47:55.555Z,56.42
2023-03-18T10:50:34.114Z,57.28
2023-03-18T10:53:16.721Z,56.34
2023-03-18T10:55:57.890Z,56.96
2023-03-18T10:58:29.181Z,56.21
2023-03-18T11:00:59.465Z,56.35
2023-03-18T11:03:31.878Z,56.64
2023-03-18T11:06:06.036Z,55.81
2023-03-18T11:08:41.198Z,56.00
2023-03-18T11:11:24.919Z,56.06
2023-03-18T11:13:56.693Z,56.04
2023-03-18T11:16:36.271Z,56.35
2023-03-18T11:19:29.137Z,55.64
2023-03-18T11:22:24.318Z,55.98
2023-03-18T11:25:16.750Z,56.32
2023-03-18T11:27:51.414Z,56.56
2023-03-18T11:30:33.947Z,56.87
2023-03-18T11:33:15.761Z,57.12
2023-03-18T11:35:52.164Z,56.45
2023-03-18T11:38:27.557Z,57.24
2023-03-18T11:41:09.037Z,58.01
2023-03-18T11:43:40.733Z,57.77
2023-03-18T11:46:13.137Z,58.01
2023-03-18T11:48:45.544Z,57.46
2023-03-18T11:51:59.478Z,57.08
2023-03-18T11:55:10.890Z,56.46
2023-03-18T11:58:08.809Z,56.69
2023-03-18T12:00:47.643Z,55.34
2023-03-18T12:04:17.515Z,55.35
2023-03-18T12:07:02.172Z,54.44
2023-03-18T12:09:42.577Z,53.54
2023-03-18T12:12:35.714Z,53.52
2023-03-18T12:15:16.989Z,54.17
2023-03-18T12:17:59.731Z,53.50
2023-03-18T12:20:44.394Z,53.41
2023-03-18T12:23:32.364Z,51.53
2023-03-18T12:26:08.671Z,51.49
2023-03-18T12:29:09.818Z,49.50
2023-03-18T12:32:02.586Z,50.06
2023-03-18T12:34:55.366Z,48.67
2023-03-18T12:37:40.945Z,48.49
2023-03-18T12:40:35.411Z,49.44
2023-03-18T12:43:34.388Z,48.01
2023-03-18T12:46:13.357Z,48.03
2023-03-18T12:51:27.220Z,47.92
2023-03-18T12:54:00.297Z,46.45
2023-03-18T12:56:32.939Z,46.88
2023-03-18T12:59:09.812Z,45.29
2023-03-18T13:01:48.002Z,46.31
2023-03-18T13:04:22.398Z,45.46
2023-03-18T13:07:00.009Z,46.87
2023-03-18T13:09:39.434Z,44.13
2023-03-18T13:12:13.694Z,46.36
2023-03-18T13:14:57.564Z,44.72
2023-03-18T13:17:31.574Z,45.88
2023-03-18T13:20:03.964Z,45.69
2023-03-18T13:23:18.897Z,43.42
2023-03-18T13:26:05.100Z,45.02
2023-03-18T13:29:10.526Z,45.00
2023-03-18T13:31:52.609Z,46.25
2023-03-18T13:35:00.668Z,45.48
2023-03-18T13:37:56.485Z,46.31
2023-03-18T13:40:52.795Z,46.82
2023-03-18T13:43:25.800Z,46.52
2023-03-18T13:45:56.559Z,45.97
2023-03-18T13:48:32.145Z,46.31
2023-03-18T13:51:15.306Z,47.50
2023-03-18T13:53:46.125Z,45.46
2023-03-18T13:56:36.438Z,45.14
2023-03-18T13:59:07.737Z,44.80
2023-03-18T14:01:38.002Z,46.28
2023-03-18T14:04:52.822Z,46.92
2023-03-18T14:07:23.805Z,47.80
2023-03-18T14:10:11.679Z,47.91
2023-03-18T14:12:49.562Z,46.50
2023-03-18T14:15:45.906Z,46.18
2023-03-18T14:18:27.821Z,45.93
2023-03-18T14:21:04.853Z,48.04
2023-03-18T14:23:42.033Z,47.52
2023-03-18T14:26:23.308Z,47.86
2023-03-18T14:28:58.948Z,46.97
2023-03-18T14:31:35.577Z,48.99
2023-03-18T14:34:30.776Z,49.66
2023-03-18T14:37:29.253Z,48.51
2023-03-18T14:40:13.970Z,49.09
2023-03-18T14:42:53.969Z,48.61
2023-03-18T14:45:31.807Z,49.24
2023-03-18T14:48:05.469Z,48.48
2023-03-18T14:50:42.174Z,49.59
2023-03-18T14:53:20.406Z,49.32
2023-03-18T14:55:50.166Z,48.88
2023-03-18T14:58:22.805Z,48.63
2023-03-18T15:00:59.132Z,47.35
2023-03-18T15:03:31.273Z,48.89
2023-03-18T15:06:03.646Z,48.87
2023-03-18T15:08:47.470Z,49.41
2023-03-18T15:11:19.074Z,47.85
2023-03-18T15:13:48.531Z,48.30
2023-03-18T15:16:24.240Z,48.81
2023-03-18T15:18:57.893Z,49.05
2023-03-18T15:21:32.600Z,49.54
2023-03-18T15:24:05.242Z,48.88
2023-03-18T15:26:39.938Z,48.79
2023-03-18T15:29:29.645Z,49.53
2023-03-18T15:32:17.545Z,50.05
2023-03-18T15:34:53.243Z,50.52
2023-03-18T15:37:40.849Z,50.66
2023-03-18T15:40:32.424Z,50.96
2023-03-18T15:43:13.915Z,51.38
2023-03-18T15:45:48.336Z,51.29
2023-03-18T15:51:31.708Z,51.36
2023-03-18T15:54:07.631Z,51.93
2023-03-18T15:56:37.797Z,50.88
2023-03-18T15:59:13.563Z,51.26
2023-03-18T16:01:43.029Z,51.99
2023-03-18T16:04:16.810Z,51.44
2023-03-18T16:06:49.056Z,51.74
2023-03-18T16:09:21.530Z,51.98
2023-03-18T16:11:54.182Z,52.15
2023-03-18T16:14:27.582Z,52.19
2023-03-18T16:16:56.957Z,52.73
2023-03-18T16:19:29.024Z,52.83
2023-03-18T16:22:01.173Z,53.44
2023-03-18T16:24:30.543Z,53.49
2023-03-18T16:27:01.349Z,53.62
2023-03-18T16:29:34.881Z,53.71
2023-03-18T16:32:04.396Z,53.89
2023-03-18T16:34:33.940Z,54.04
2023-03-18T16:37:05.430Z,54.16
2023-03-18T16:39:37.411Z,54.93
2023-03-18T16:42:08.272Z,55.09
2023-03-18T16:44:39.014Z,55.52
2023-03-18T16:47:11.071Z,55.72
2023-03-18T16:49:40.691Z,56.21
2023-03-18T16:52:14.357Z,57.30
2023-03-18T16:54:44.314Z,57.22
2023-03-18T16:57:19.759Z,56.48
2023-03-18T16:59:52.976Z,56.48
2023-03-18T17:02:43.038Z,56.59
2023-03-18T17:05:17.571Z,57.67
2023-03-18T17:07:48.679Z,57.77
2023-03-18T17:10:22.549Z,57.97
2023-03-18T17:12:56.081Z,58.39
2023-03-18T17:15:31.959Z,59.04
2023-03-18T17:18:01.936Z,59.18
2023-03-18T17:20:33.710Z,59.41
2023-03-18T17:23:05.877Z,60.36
2023-03-18T17:25:35.866Z,60.41
2023-03-18T17:28:07.573Z,61.02
2023-03-18T17:30:39.798Z,61.96
2023-03-18T17:33:24.941Z,62.54
2023-03-18T17:35:55.504Z,62.64
2023-03-18T17:38:27.056Z,62.98
2023-03-18T17:40:57.048Z,63.84
2023-03-18T17:43:31.299Z,63.91
2023-03-18T17:46:03.223Z,64.18
2023-03-18T17:48:35.090Z,64.64
2023-03-18T17:51:09.441Z,64.98
2023-03-18T17:53:43.376Z,64.86
2023-03-18T17:56:15.976Z,64.28
2023-03-18T17:58:47.829Z,63.78
2023-03-18T18:01:20.023Z,63.76
2023-03-18T18:03:49.660Z,64.35
2023-03-18T18:06:22.047Z,65.01
2023-03-18T18:08:56.374Z,65.98
2023-03-18T18:11:29.089Z,66.28
2023-03-18T18:14:02.390Z,66.97
2023-03-18T18:16:32.716Z,67.68
2023-03-18T18:19:02.496Z,67.63
2023-03-18T18:21:32.390Z,67.64
2023-03-18T18:24:03.304Z,67.63
2023-03-18T18:26:32.967Z,67.76
2023-03-18T18:29:02.381Z,67.81
2023-03-18T18:31:34.347Z,68.08
2023-03-18T18:34:03.775Z,68.16
2023-03-18T18:36:33.578Z,68.47
2023-03-18T18:39:05.254Z,68.90
2023-03-18T18:41:34.938Z,68.70
2023-03-18T18:44:04.520Z,68.93
2023-03-18T18:46:34.383Z,69.29
2023-03-18T18:51:25.259Z,69.55
2023-03-18T18:53:56.336Z,69.48
2023-03-18T18:56:32.407Z,69.20
2023-03-18T18:59:02.277Z,69.35
2023-03-18T19:04:19.367Z,69.72
2023-03-18T19:06:51.115Z,70.21
2023-03-18T19:09:23.856Z,69.25
2023-03-18T19:11:56.527Z,70.12
2023-03-18T19:14:27.688Z,70.60
2023-03-18T19:17:00.089Z,70.43
2023-03-18T19:19:34.622Z,70.35
2023-03-18T19:22:07.051Z,70.40
2023-03-18T19:24:37.326Z,70.78
2023-03-18T19:27:15.209Z,70.84
2023-03-18T19:29:44.892Z,71.18
2023-03-18T19:32:19.504Z,71.87
2023-03-18T19:34:49.718Z,71.71
2023-03-18T19:37:23.946Z,72.25
2023-03-18T19:39:53.847Z,72.03
2023-03-18T19:42:23.767Z,72.11
2023-03-18T19:44:53.266Z,72.12
2023-03-18T19:47:26.076Z,72.16
2023-03-18T19:49:55.854Z,73.16
2023-03-18T19:52:30.709Z,73.17
2023-03-18T19:55:02.611Z,73.56
2023-03-18T19:57:33.735Z,73.63
2023-03-18T20:00:07.258Z,74.09
2023-03-18T20:02:54.492Z,73.50
2023-03-18T20:05:26.286Z,74.08
2023-03-18T20:07:57.020Z,73.93
2023-03-18T20:10:26.526Z,74.30
2023-03-18T20:12:55.897Z,74.48
2023-03-18T20:15:29.443Z,74.87
2023-03-18T20:18:01.086Z,74.95
2023-03-18T20:20:51.526Z,74.55
2023-03-18T20:23:25.498Z,74.78
2023-03-18T20:25:58.662Z,74.60
2023-03-18T20:28:30.000Z,74.83
2023-03-18T20:31:01.038Z,75.67
2023-03-18T20:33:32.594Z,75.32
2023-03-18T20:36:02.289Z,75.20
2023-03-18T20:38:37.638Z,74.94
2023-03-18T20:41:08.166Z,74.74
2023-03-18T20:43:37.662Z,75.29
2023-03-18T20:46:07.417Z,75.13
2023-03-18T20:48:38.313Z,76.14
2023-03-18T20:51:17.871Z,75.68
2023-03-18T20:53:49.576Z,75.84
2023-03-18T20:56:22.727Z,76.13
2023-03-18T20:58:52.311Z,75.82
2023-03-18T21:01:23.008Z,75.96
2023-03-18T21:03:52.456Z,75.92
2023-03-18T21:06:22.169Z,75.65
2023-03-18T21:08:53.168Z,75.44
2023-03-18T21:11:27.357Z,75.39
2023-03-18T21:13:56.815Z,76.73
2023-03-18T21:16:26.868Z,75.50
2023-03-18T21:18:56.352Z,74.83
2023-03-18T21:21:30.319Z,75.40
2023-03-18T21:24:01.160Z,74.53
2023-03-18T21:26:30.728Z,74.67
2023-03-18T21:29:00.351Z,76.18
2023-03-18T21:31:33.162Z,76.90
2023-03-18T21:34:02.381Z,76.50
2023-03-18T21:36:32.413Z,76.56
2023-03-18T21:39:03.245Z,76.32
2023-03-18T21:41:33.150Z,75.99
2023-03-18T21:44:02.698Z,75.48
2023-03-18T21:46:32.281Z,75.68
2023-03-18T21:51:39.964Z,76.53
2023-03-18T21:54:19.969Z,76.61
2023-03-18T21:56:49.267Z,76.45
2023-03-18T21:59:19.084Z,77.56
2023-03-18T22:01:48.622Z,78.14
2023-03-18T22:04:17.967Z,77.86
2023-03-18T22:06:48.931Z,77.33
2023-03-18T22:09:18.382Z,77.04
2023-03-18T22:11:47.859Z,76.84
2023-03-18T22:14:17.305Z,77.09
2023-03-18T22:16:46.731Z,76.87
2023-03-18T22:19:16.013Z,76.79
2023-03-18T22:21:45.358Z,76.37
2023-03-18T22:24:17.151Z,76.48
2023-03-18T22:26:46.418Z,76.22
2023-03-18T22:29:15.837Z,76.41
2023-03-18T22:31:45.163Z,75.92
2023-03-18T22:34:24.711Z,76.35
2023-03-18T22:36:54.058Z,76.26
2023-03-18T22:39:24.814Z,76.03
2023-03-18T22:41:54.144Z,75.92
2023-03-18T22:44:26.559Z,75.79
2023-03-18T22:46:56.027Z,75.89
2023-03-18T22:49:25.776Z,76.26
2023-03-18T22:51:55.463Z,75.72
2023-03-18T22:54:27.530Z,76.11
2023-03-18T22:56:58.740Z,76.12
2023-03-18T22:59:28.412Z,76.61
2023-03-18T23:01:58.394Z,76.26
2023-03-18T23:04:30.397Z,76.36
2023-03-18T23:06:59.915Z,76.02
2023-03-18T23:09:31.902Z,76.03
2023-03-18T23:12:01.608Z,75.89
2023-03-18T23:14:30.929Z,76.59
2023-03-18T23:17:00.343Z,77.82
2023-03-18T23:19:29.881Z,77.02
2023-03-18T23:21:59.253Z,76.61
2023-03-18T23:24:30.086Z,76.61
2023-03-18T23:26:59.389Z,76.93
2023-03-18T23:29:28.843Z,77.41
2023-03-18T23:31:58.389Z,76.98
2023-03-18T23:34:27.743Z,77.14
2023-03-18T23:36:57.457Z,77.86
2023-03-18T23:39:27.457Z,77.42
2023-03-18T23:41:58.432Z,77.24
2023-03-18T23:44:28.459Z,77.28
2023-03-18T23:46:57.876Z,77.46
2023-03-18T23:49:32.472Z,77.98
2023-03-18T23:52:02.255Z,77.65
2023-03-18T23:54:31.936Z,78.45
2023-03-18T23:57:03.074Z,77.74
2023-03-18T23:59:32.801Z,77.95
